sensor_id;sensor_type;location;lat;lon;timestamp;P1;durP1;ratioP1;P2;durP2;ratioP2
67053;SDS011;53960;51.826;5.850;2023-04-03T00:01:22;7.30;;;2.20;;
67053;SDS011;53960;51.826;5.850;2023-04-03T00:03:48;7.43;;;2.30;;
67053;SDS011;53960;51.826;5.850;2023-04-03T00:06:13;7.77;;;2.20;;
67053;SDS011;53960;51.826;5.850;2023-04-03T00:08:39;6.87;;;1.87;;
67053;SDS011;53960;51.826;5.850;2023-04-03T00:11:05;7.45;;;2.33;;
67053;SDS011;53960;51.826;5.850;2023-04-03T00:13:32;6.07;;;1.80;;
67053;SDS011;53960;51.826;5.850;2023-04-03T00:15:58;8.50;;;1.90;;
67053;SDS011;53960;51.826;5.850;2023-04-03T00:18:24;6.78;;;1.70;;
67053;SDS011;53960;51.826;5.850;2023-04-03T00:20:49;6.77;;;2.00;;
67053;SDS011;53960;51.826;5.850;2023-04-03T00:23:15;6.90;;;1.83;;
67053;SDS011;53960;51.826;5.850;2023-04-03T00:25:41;6.15;;;1.80;;
67053;SDS011;53960;51.826;5.850;2023-04-03T00:28:07;8.07;;;2.20;;
67053;SDS011;53960;51.826;5.850;2023-04-03T00:30:32;7.57;;;2.27;;
67053;SDS011;53960;51.826;5.850;2023-04-03T00:32:58;6.97;;;2.23;;
67053;SDS011;53960;51.826;5.850;2023-04-03T00:35:23;8.43;;;2.40;;
67053;SDS011;53960;51.826;5.850;2023-04-03T00:37:52;7.07;;;1.75;;
67053;SDS011;53960;51.826;5.850;2023-04-03T00:40:20;6.47;;;2.00;;
67053;SDS011;53960;51.826;5.850;2023-04-03T00:42:46;7.55;;;2.30;;
67053;SDS011;53960;51.826;5.850;2023-04-03T00:45:35;6.47;;;1.98;;
67053;SDS011;53960;51.826;5.850;2023-04-03T00:48:01;7.93;;;2.22;;
67053;SDS011;53960;51.826;5.850;2023-04-03T00:50:31;7.57;;;2.03;;
67053;SDS011;53960;51.826;5.850;2023-04-03T00:52:58;6.47;;;2.00;;
67053;SDS011;53960;51.826;5.850;2023-04-03T00:55:24;6.43;;;2.03;;
67053;SDS011;53960;51.826;5.850;2023-04-03T00:57:50;9.10;;;2.13;;
67053;SDS011;53960;51.826;5.850;2023-04-03T01:00:17;8.00;;;1.95;;
67053;SDS011;53960;51.826;5.850;2023-04-03T01:02:44;6.53;;;1.80;;
67053;SDS011;53960;51.826;5.850;2023-04-03T01:05:10;6.57;;;1.80;;
67053;SDS011;53960;51.826;5.850;2023-04-03T01:07:36;7.03;;;1.90;;
67053;SDS011;53960;51.826;5.850;2023-04-03T01:10:04;6.80;;;2.03;;
67053;SDS011;53960;51.826;5.850;2023-04-03T01:12:35;8.73;;;2.23;;
67053;SDS011;53960;51.826;5.850;2023-04-03T01:15:10;7.22;;;2.08;;
67053;SDS011;53960;51.826;5.850;2023-04-03T01:17:48;6.63;;;1.80;;
67053;SDS011;53960;51.826;5.850;2023-04-03T01:23:03;7.13;;;2.03;;
67053;SDS011;53960;51.826;5.850;2023-04-03T01:25:41;8.50;;;2.20;;
67053;SDS011;53960;51.826;5.850;2023-04-03T01:33:23;6.93;;;2.00;;
67053;SDS011;53960;51.826;5.850;2023-04-03T01:35:48;7.37;;;2.20;;
67053;SDS011;53960;51.826;5.850;2023-04-03T01:38:14;7.97;;;1.90;;
67053;SDS011;53960;51.826;5.850;2023-04-03T01:40:40;7.20;;;1.92;;
67053;SDS011;53960;51.826;5.850;2023-04-03T01:43:05;7.97;;;1.80;;
67053;SDS011;53960;51.826;5.850;2023-04-03T01:45:30;8.13;;;1.80;;
67053;SDS011;53960;51.826;5.850;2023-04-03T01:47:56;6.87;;;1.87;;
67053;SDS011;53960;51.826;5.850;2023-04-03T01:50:21;8.87;;;1.90;;
67053;SDS011;53960;51.826;5.850;2023-04-03T01:52:46;9.57;;;2.20;;
67053;SDS011;53960;51.826;5.850;2023-04-03T01:55:12;8.45;;;1.92;;
67053;SDS011;53960;51.826;5.850;2023-04-03T01:57:37;7.07;;;2.13;;
67053;SDS011;53960;51.826;5.850;2023-04-03T02:00:02;8.87;;;2.30;;
67053;SDS011;53960;51.826;5.850;2023-04-03T02:02:28;9.77;;;2.25;;
67053;SDS011;53960;51.826;5.850;2023-04-03T02:04:53;8.13;;;2.57;;
67053;SDS011;53960;51.826;5.850;2023-04-03T02:07:19;8.07;;;2.20;;
67053;SDS011;53960;51.826;5.850;2023-04-03T02:09:45;8.40;;;2.42;;
67053;SDS011;53960;51.826;5.850;2023-04-03T02:12:10;7.80;;;2.33;;
67053;SDS011;53960;51.826;5.850;2023-04-03T02:14:36;7.40;;;2.50;;
67053;SDS011;53960;51.826;5.850;2023-04-03T02:17:01;7.03;;;2.20;;
67053;SDS011;53960;51.826;5.850;2023-04-03T02:19:33;8.60;;;2.40;;
67053;SDS011;53960;51.826;5.850;2023-04-03T02:22:00;7.28;;;2.42;;
67053;SDS011;53960;51.826;5.850;2023-04-03T02:24:25;7.77;;;2.47;;
67053;SDS011;53960;51.826;5.850;2023-04-03T02:26:50;7.77;;;2.80;;
67053;SDS011;53960;51.826;5.850;2023-04-03T02:29:16;9.43;;;3.10;;
67053;SDS011;53960;51.826;5.850;2023-04-03T02:31:41;7.10;;;2.30;;
67053;SDS011;53960;51.826;5.850;2023-04-03T02:34:06;9.68;;;2.42;;
67053;SDS011;53960;51.826;5.850;2023-04-03T02:36:32;9.07;;;2.17;;
67053;SDS011;53960;51.826;5.850;2023-04-03T02:38:57;8.03;;;2.17;;
67053;SDS011;53960;51.826;5.850;2023-04-03T02:41:22;7.63;;;2.30;;
67053;SDS011;53960;51.826;5.850;2023-04-03T02:43:50;8.48;;;2.20;;
67053;SDS011;53960;51.826;5.850;2023-04-03T02:46:15;7.07;;;2.13;;
67053;SDS011;53960;51.826;5.850;2023-04-03T02:48:41;8.47;;;2.30;;
67053;SDS011;53960;51.826;5.850;2023-04-03T02:51:06;7.27;;;2.00;;
67053;SDS011;53960;51.826;5.850;2023-04-03T02:53:31;7.57;;;2.10;;
67053;SDS011;53960;51.826;5.850;2023-04-03T02:55:57;8.10;;;2.03;;
67053;SDS011;53960;51.826;5.850;2023-04-03T02:58:22;8.03;;;2.33;;
67053;SDS011;53960;51.826;5.850;2023-04-03T03:00:47;8.17;;;2.10;;
67053;SDS011;53960;51.826;5.850;2023-04-03T03:03:13;9.60;;;2.00;;
67053;SDS011;53960;51.826;5.850;2023-04-03T03:05:39;7.82;;;2.35;;
67053;SDS011;53960;51.826;5.850;2023-04-03T03:08:04;7.27;;;2.10;;
67053;SDS011;53960;51.826;5.850;2023-04-03T03:10:29;7.23;;;2.07;;
67053;SDS011;53960;51.826;5.850;2023-04-03T03:12:55;7.10;;;2.10;;
67053;SDS011;53960;51.826;5.850;2023-04-03T03:15:20;7.17;;;1.90;;
67053;SDS011;53960;51.826;5.850;2023-04-03T03:17:46;6.38;;;1.98;;
67053;SDS011;53960;51.826;5.850;2023-04-03T03:20:11;6.83;;;2.00;;
67053;SDS011;53960;51.826;5.850;2023-04-03T03:22:39;6.25;;;2.00;;
67053;SDS011;53960;51.826;5.850;2023-04-03T03:25:04;9.30;;;1.97;;
67053;SDS011;53960;51.826;5.850;2023-04-03T03:27:30;8.63;;;2.10;;
67053;SDS011;53960;51.826;5.850;2023-04-03T03:29:57;7.10;;;1.80;;
67053;SDS011;53960;51.826;5.850;2023-04-03T03:32:22;7.28;;;2.00;;
67053;SDS011;53960;51.826;5.850;2023-04-03T03:34:48;7.43;;;1.50;;
67053;SDS011;53960;51.826;5.850;2023-04-03T03:37:13;7.80;;;1.77;;
67053;SDS011;53960;51.826;5.850;2023-04-03T03:39:38;6.53;;;1.70;;
67053;SDS011;53960;51.826;5.850;2023-04-03T03:42:03;7.73;;;1.80;;
67053;SDS011;53960;51.826;5.850;2023-04-03T03:44:29;8.30;;;1.80;;
67053;SDS011;53960;51.826;5.850;2023-04-03T03:46:54;7.10;;;1.70;;
67053;SDS011;53960;51.826;5.850;2023-04-03T03:49:21;9.43;;;1.90;;
67053;SDS011;53960;51.826;5.850;2023-04-03T03:51:46;7.17;;;2.00;;
67053;SDS011;53960;51.826;5.850;2023-04-03T03:54:12;7.55;;;1.98;;
67053;SDS011;53960;51.826;5.850;2023-04-03T03:56:37;6.73;;;1.90;;
67053;SDS011;53960;51.826;5.850;2023-04-03T03:59:03;9.17;;;1.93;;
67053;SDS011;53960;51.826;5.850;2023-04-03T04:01:28;9.38;;;2.10;;
67053;SDS011;53960;51.826;5.850;2023-04-03T04:03:53;6.80;;;1.90;;
67053;SDS011;53960;51.826;5.850;2023-04-03T04:06:19;9.10;;;1.90;;
67053;SDS011;53960;51.826;5.850;2023-04-03T04:08:45;8.97;;;2.10;;
67053;SDS011;53960;51.826;5.850;2023-04-03T04:11:11;7.23;;;1.70;;
67053;SDS011;53960;51.826;5.850;2023-04-03T04:13:36;7.40;;;2.03;;
67053;SDS011;53960;51.826;5.850;2023-04-03T04:16:01;8.20;;;2.27;;
67053;SDS011;53960;51.826;5.850;2023-04-03T04:18:27;9.37;;;2.00;;
67053;SDS011;53960;51.826;5.850;2023-04-03T04:20:52;7.10;;;1.80;;
67053;SDS011;53960;51.826;5.850;2023-04-03T04:23:18;9.00;;;2.00;;
67053;SDS011;53960;51.826;5.850;2023-04-03T04:25:44;9.53;;;2.00;;
67053;SDS011;53960;51.826;5.850;2023-04-03T04:28:10;8.75;;;1.65;;
67053;SDS011;53960;51.826;5.850;2023-04-03T04:30:36;8.00;;;1.90;;
67053;SDS011;53960;51.826;5.850;2023-04-03T04:33:01;6.95;;;1.90;;
67053;SDS011;53960;51.826;5.850;2023-04-03T04:35:27;8.03;;;1.80;;
67053;SDS011;53960;51.826;5.850;2023-04-03T04:37:52;7.07;;;2.00;;
67053;SDS011;53960;51.826;5.850;2023-04-03T04:40:18;8.07;;;1.90;;
67053;SDS011;53960;51.826;5.850;2023-04-03T04:42:43;7.20;;;2.33;;
67053;SDS011;53960;51.826;5.850;2023-04-03T04:45:08;7.80;;;1.70;;
67053;SDS011;53960;51.826;5.850;2023-04-03T04:47:34;6.67;;;1.70;;
67053;SDS011;53960;51.826;5.850;2023-04-03T04:49:59;8.30;;;2.10;;
67053;SDS011;53960;51.826;5.850;2023-04-03T04:52:24;5.90;;;1.83;;
67053;SDS011;53960;51.826;5.850;2023-04-03T04:54:50;6.20;;;1.70;;
67053;SDS011;53960;51.826;5.850;2023-04-03T04:57:15;8.83;;;2.20;;
67053;SDS011;53960;51.826;5.850;2023-04-03T04:59:40;8.25;;;1.75;;
67053;SDS011;53960;51.826;5.850;2023-04-03T05:02:06;7.23;;;2.23;;
67053;SDS011;53960;51.826;5.850;2023-04-03T05:04:31;7.40;;;2.03;;
67053;SDS011;53960;51.826;5.850;2023-04-03T05:06:56;5.90;;;1.70;;
67053;SDS011;53960;51.826;5.850;2023-04-03T05:09:22;8.10;;;2.00;;
67053;SDS011;53960;51.826;5.850;2023-04-03T05:11:47;7.07;;;1.80;;
67053;SDS011;53960;51.826;5.850;2023-04-03T05:14:12;6.38;;;1.77;;
67053;SDS011;53960;51.826;5.850;2023-04-03T05:16:38;7.57;;;1.90;;
67053;SDS011;53960;51.826;5.850;2023-04-03T05:19:04;7.97;;;2.10;;
67053;SDS011;53960;51.826;5.850;2023-04-03T05:21:29;8.77;;;1.70;;
67053;SDS011;53960;51.826;5.850;2023-04-03T05:23:57;7.68;;;1.90;;
67053;SDS011;53960;51.826;5.850;2023-04-03T05:26:24;8.52;;;1.98;;
67053;SDS011;53960;51.826;5.850;2023-04-03T05:28:50;9.35;;;2.20;;
67053;SDS011;53960;51.826;5.850;2023-04-03T05:31:16;8.20;;;1.90;;
67053;SDS011;53960;51.826;5.850;2023-04-03T05:33:41;8.27;;;1.97;;
67053;SDS011;53960;51.826;5.850;2023-04-03T05:36:07;7.35;;;1.75;;
67053;SDS011;53960;51.826;5.850;2023-04-03T05:38:33;9.50;;;2.47;;
67053;SDS011;53960;51.826;5.850;2023-04-03T05:40:58;7.03;;;1.87;;
67053;SDS011;53960;51.826;5.850;2023-04-03T05:43:24;7.18;;;1.67;;
67053;SDS011;53960;51.826;5.850;2023-04-03T05:45:50;8.13;;;2.20;;
67053;SDS011;53960;51.826;5.850;2023-04-03T05:48:16;9.05;;;2.05;;
67053;SDS011;53960;51.826;5.850;2023-04-03T05:50:41;6.73;;;1.90;;
67053;SDS011;53960;51.826;5.850;2023-04-03T05:53:07;10.38;;;2.40;;
67053;SDS011;53960;51.826;5.850;2023-04-03T05:55:42;7.25;;;1.80;;
67053;SDS011;53960;51.826;5.850;2023-04-03T05:58:08;6.83;;;2.17;;
67053;SDS011;53960;51.826;5.850;2023-04-03T06:00:33;8.17;;;2.10;;
67053;SDS011;53960;51.826;5.850;2023-04-03T06:02:58;7.10;;;1.83;;
67053;SDS011;53960;51.826;5.850;2023-04-03T06:05:24;8.07;;;1.90;;
67053;SDS011;53960;51.826;5.850;2023-04-03T06:07:49;9.63;;;2.30;;
67053;SDS011;53960;51.826;5.850;2023-04-03T06:10:15;8.77;;;2.00;;
67053;SDS011;53960;51.826;5.850;2023-04-03T06:12:40;7.70;;;2.20;;
67053;SDS011;53960;51.826;5.850;2023-04-03T06:15:06;10.65;;;2.13;;
67053;SDS011;53960;51.826;5.850;2023-04-03T06:17:33;7.25;;;1.88;;
67053;SDS011;53960;51.826;5.850;2023-04-03T06:19:58;9.47;;;2.17;;
67053;SDS011;53960;51.826;5.850;2023-04-03T06:22:24;7.97;;;1.90;;
67053;SDS011;53960;51.826;5.850;2023-04-03T06:24:50;8.85;;;2.50;;
67053;SDS011;53960;51.826;5.850;2023-04-03T06:27:16;8.77;;;2.40;;
67053;SDS011;53960;51.826;5.850;2023-04-03T06:29:41;10.98;;;2.42;;
67053;SDS011;53960;51.826;5.850;2023-04-03T06:32:07;6.93;;;2.00;;
67053;SDS011;53960;51.826;5.850;2023-04-03T06:34:32;8.23;;;2.40;;
67053;SDS011;53960;51.826;5.850;2023-04-03T06:36:58;9.38;;;2.38;;
67053;SDS011;53960;51.826;5.850;2023-04-03T06:39:23;8.17;;;2.23;;
67053;SDS011;53960;51.826;5.850;2023-04-03T06:41:49;7.23;;;2.00;;
67053;SDS011;53960;51.826;5.850;2023-04-03T06:44:15;8.13;;;2.28;;
67053;SDS011;53960;51.826;5.850;2023-04-03T06:46:41;8.10;;;2.10;;
67053;SDS011;53960;51.826;5.850;2023-04-03T06:49:07;8.75;;;2.70;;
67053;SDS011;53960;51.826;5.850;2023-04-03T06:51:33;8.35;;;2.47;;
67053;SDS011;53960;51.826;5.850;2023-04-03T06:54:00;10.02;;;2.80;;
67053;SDS011;53960;51.826;5.850;2023-04-03T06:56:26;9.17;;;2.40;;
67053;SDS011;53960;51.826;5.850;2023-04-03T06:58:52;9.10;;;2.10;;
67053;SDS011;53960;51.826;5.850;2023-04-03T07:01:19;7.35;;;2.00;;
67053;SDS011;53960;51.826;5.850;2023-04-03T07:03:45;8.50;;;2.33;;
67053;SDS011;53960;51.826;5.850;2023-04-03T07:06:12;10.35;;;2.58;;
67053;SDS011;53960;51.826;5.850;2023-04-03T07:08:38;10.18;;;2.67;;
67053;SDS011;53960;51.826;5.850;2023-04-03T07:11:05;10.45;;;2.55;;
67053;SDS011;53960;51.826;5.850;2023-04-03T07:13:31;8.10;;;2.40;;
67053;SDS011;53960;51.826;5.850;2023-04-03T07:15:57;8.57;;;2.50;;
67053;SDS011;53960;51.826;5.850;2023-04-03T07:18:23;10.55;;;2.33;;
67053;SDS011;53960;51.826;5.850;2023-04-03T07:20:48;10.70;;;2.37;;
67053;SDS011;53960;51.826;5.850;2023-04-03T07:23:14;7.87;;;2.20;;
67053;SDS011;53960;51.826;5.850;2023-04-03T07:25:43;8.43;;;1.93;;
67053;SDS011;53960;51.826;5.850;2023-04-03T07:28:13;8.75;;;2.20;;
67053;SDS011;53960;51.826;5.850;2023-04-03T07:30:42;8.80;;;2.73;;
67053;SDS011;53960;51.826;5.850;2023-04-03T07:33:08;8.40;;;1.70;;
67053;SDS011;53960;51.826;5.850;2023-04-03T07:35:34;5.67;;;1.60;;
67053;SDS011;53960;51.826;5.850;2023-04-03T07:37:59;7.80;;;1.97;;
67053;SDS011;53960;51.826;5.850;2023-04-03T07:40:25;6.32;;;1.60;;
67053;SDS011;53960;51.826;5.850;2023-04-03T07:42:50;7.07;;;1.67;;
67053;SDS011;53960;51.826;5.850;2023-04-03T07:45:15;7.90;;;2.30;;
67053;SDS011;53960;51.826;5.850;2023-04-03T07:47:42;7.53;;;1.77;;
67053;SDS011;53960;51.826;5.850;2023-04-03T07:50:07;6.37;;;1.70;;
67053;SDS011;53960;51.826;5.850;2023-04-03T07:52:33;7.68;;;1.77;;
67053;SDS011;53960;51.826;5.850;2023-04-03T07:54:58;6.27;;;1.50;;
67053;SDS011;53960;51.826;5.850;2023-04-03T07:57:23;8.10;;;1.73;;
67053;SDS011;53960;51.826;5.850;2023-04-03T07:59:49;8.90;;;1.80;;
67053;SDS011;53960;51.826;5.850;2023-04-03T08:02:14;7.67;;;2.00;;
67053;SDS011;53960;51.826;5.850;2023-04-03T08:04:40;8.43;;;2.20;;
67053;SDS011;53960;51.826;5.850;2023-04-03T08:07:05;8.70;;;1.90;;
67053;SDS011;53960;51.826;5.850;2023-04-03T08:09:31;7.73;;;2.10;;
67053;SDS011;53960;51.826;5.850;2023-04-03T08:11:56;8.77;;;2.43;;
67053;SDS011;53960;51.826;5.850;2023-04-03T08:14:22;8.75;;;2.35;;
67053;SDS011;53960;51.826;5.850;2023-04-03T08:16:47;7.93;;;1.93;;
67053;SDS011;53960;51.826;5.850;2023-04-03T08:19:14;7.35;;;1.88;;
67053;SDS011;53960;51.826;5.850;2023-04-03T08:21:41;6.37;;;1.73;;
67053;SDS011;53960;51.826;5.850;2023-04-03T08:24:06;8.27;;;2.00;;
67053;SDS011;53960;51.826;5.850;2023-04-03T08:26:33;7.73;;;1.90;;
67053;SDS011;53960;51.826;5.850;2023-04-03T08:28:59;6.90;;;2.00;;
67053;SDS011;53960;51.826;5.850;2023-04-03T08:31:24;10.53;;;1.80;;
67053;SDS011;53960;51.826;5.850;2023-04-03T08:33:50;7.63;;;2.00;;
67053;SDS011;53960;51.826;5.850;2023-04-03T08:36:16;8.33;;;2.17;;
67053;SDS011;53960;51.826;5.850;2023-04-03T08:38:44;5.80;;;1.40;;
67053;SDS011;53960;51.826;5.850;2023-04-03T08:44:07;6.60;;;1.83;;
67053;SDS011;53960;51.826;5.850;2023-04-03T08:46:59;5.67;;;1.37;;
67053;SDS011;53960;51.826;5.850;2023-04-03T08:49:47;5.32;;;1.33;;
67053;SDS011;53960;51.826;5.850;2023-04-03T08:52:22;7.95;;;1.40;;
67053;SDS011;53960;51.826;5.850;2023-04-03T08:55:01;5.90;;;1.45;;
67053;SDS011;53960;51.826;5.850;2023-04-03T08:57:34;6.35;;;1.70;;
67053;SDS011;53960;51.826;5.850;2023-04-03T09:02:46;5.70;;;1.50;;
67053;SDS011;53960;51.826;5.850;2023-04-03T09:05:17;5.30;;;1.35;;
67053;SDS011;53960;51.826;5.850;2023-04-03T09:07:49;6.22;;;1.30;;
67053;SDS011;53960;51.826;5.850;2023-04-03T09:10:24;6.55;;;1.45;;
67053;SDS011;53960;51.826;5.850;2023-04-03T09:12:55;6.37;;;1.03;;
67053;SDS011;53960;51.826;5.850;2023-04-03T09:15:33;6.55;;;1.17;;
67053;SDS011;53960;51.826;5.850;2023-04-03T09:18:00;4.03;;;0.80;;
67053;SDS011;53960;51.826;5.850;2023-04-03T09:25:45;4.03;;;0.83;;
67053;SDS011;53960;51.826;5.850;2023-04-03T09:28:10;4.65;;;0.80;;
67053;SDS011;53960;51.826;5.850;2023-04-03T09:30:37;3.75;;;0.77;;
67053;SDS011;53960;51.826;5.850;2023-04-03T09:33:03;5.07;;;1.10;;
67053;SDS011;53960;51.826;5.850;2023-04-03T09:35:30;4.97;;;0.70;;
67053;SDS011;53960;51.826;5.850;2023-04-03T09:37:58;4.88;;;0.80;;
67053;SDS011;53960;51.826;5.850;2023-04-03T09:42:49;4.40;;;0.70;;
67053;SDS011;53960;51.826;5.850;2023-04-03T09:45:36;4.23;;;0.90;;
67053;SDS011;53960;51.826;5.850;2023-04-03T09:48:06;4.93;;;0.70;;
67053;SDS011;53960;51.826;5.850;2023-04-03T09:50:38;3.30;;;0.80;;
67053;SDS011;53960;51.826;5.850;2023-04-03T09:53:29;2.55;;;0.50;;
67053;SDS011;53960;51.826;5.850;2023-04-03T09:55:59;4.53;;;1.00;;
67053;SDS011;53960;51.826;5.850;2023-04-03T09:58:29;3.30;;;0.60;;
67053;SDS011;53960;51.826;5.850;2023-04-03T10:00:59;4.22;;;0.90;;
67053;SDS011;53960;51.826;5.850;2023-04-03T10:03:30;3.38;;;0.77;;
67053;SDS011;53960;51.826;5.850;2023-04-03T10:06:00;3.88;;;0.60;;
67053;SDS011;53960;51.826;5.850;2023-04-03T10:08:32;3.63;;;0.98;;
67053;SDS011;53960;51.826;5.850;2023-04-03T10:11:12;5.83;;;0.90;;
67053;SDS011;53960;51.826;5.850;2023-04-03T10:13:49;3.65;;;0.77;;
67053;SDS011;53960;51.826;5.850;2023-04-03T10:16:16;3.13;;;0.85;;
67053;SDS011;53960;51.826;5.850;2023-04-03T10:18:46;3.72;;;0.60;;
67053;SDS011;53960;51.826;5.850;2023-04-03T10:24:11;2.50;;;0.57;;
67053;SDS011;53960;51.826;5.850;2023-04-03T10:34:48;3.58;;;0.90;;
67053;SDS011;53960;51.826;5.850;2023-04-03T10:37:24;3.43;;;0.70;;
67053;SDS011;53960;51.826;5.850;2023-04-03T10:39:57;3.20;;;0.90;;
67053;SDS011;53960;51.826;5.850;2023-04-03T10:48:25;5.03;;;0.80;;
67053;SDS011;53960;51.826;5.850;2023-04-03T10:53:50;4.85;;;0.90;;
67053;SDS011;53960;51.826;5.850;2023-04-03T11:01:55;4.88;;;0.98;;
67053;SDS011;53960;51.826;5.850;2023-04-03T11:04:23;3.77;;;0.90;;
67053;SDS011;53960;51.826;5.850;2023-04-03T11:07:03;4.18;;;0.63;;
67053;SDS011;53960;51.826;5.850;2023-04-03T11:09:35;5.57;;;0.80;;
67053;SDS011;53960;51.826;5.850;2023-04-03T11:12:17;4.93;;;0.80;;
67053;SDS011;53960;51.826;5.850;2023-04-03T11:14:51;5.25;;;0.90;;
67053;SDS011;53960;51.826;5.850;2023-04-03T11:17:21;3.97;;;0.87;;
67053;SDS011;53960;51.826;5.850;2023-04-03T11:22:43;5.55;;;0.80;;
67053;SDS011;53960;51.826;5.850;2023-04-03T11:25:15;4.35;;;0.90;;
67053;SDS011;53960;51.826;5.850;2023-04-03T11:27:56;5.25;;;1.10;;
67053;SDS011;53960;51.826;5.850;2023-04-03T11:33:14;4.90;;;1.52;;
67053;SDS011;53960;51.826;5.850;2023-04-03T11:35:47;4.95;;;1.00;;
67053;SDS011;53960;51.826;5.850;2023-04-03T11:38:25;4.45;;;0.90;;
67053;SDS011;53960;51.826;5.850;2023-04-03T11:40:55;4.40;;;1.00;;
67053;SDS011;53960;51.826;5.850;2023-04-03T11:50:59;5.90;;;0.95;;
67053;SDS011;53960;51.826;5.850;2023-04-03T11:53:27;5.28;;;1.13;;
67053;SDS011;53960;51.826;5.850;2023-04-03T11:55:56;6.73;;;1.00;;
67053;SDS011;53960;51.826;5.850;2023-04-03T11:58:24;6.22;;;1.00;;
67053;SDS011;53960;51.826;5.850;2023-04-03T12:05:48;5.07;;;1.10;;
67053;SDS011;53960;51.826;5.850;2023-04-03T12:13:41;4.57;;;1.00;;
67053;SDS011;53960;51.826;5.850;2023-04-03T12:16:32;6.03;;;2.08;;
67053;SDS011;53960;51.826;5.850;2023-04-03T12:18:59;5.47;;;1.00;;
67053;SDS011;53960;51.826;5.850;2023-04-03T12:29:39;6.80;;;1.33;;
67053;SDS011;53960;51.826;5.850;2023-04-03T12:46:36;4.93;;;0.97;;
67053;SDS011;53960;51.826;5.850;2023-04-03T12:49:12;3.78;;;0.73;;
67053;SDS011;53960;51.826;5.850;2023-04-03T12:51:47;5.70;;;1.08;;
67053;SDS011;53960;51.826;5.850;2023-04-03T12:54:14;6.22;;;1.05;;
67053;SDS011;53960;51.826;5.850;2023-04-03T12:57:13;6.37;;;1.10;;
67053;SDS011;53960;51.826;5.850;2023-04-03T12:59:43;5.80;;;1.10;;
67053;SDS011;53960;51.826;5.850;2023-04-03T13:02:27;4.65;;;1.08;;
67053;SDS011;53960;51.826;5.850;2023-04-03T13:04:59;5.95;;;1.10;;
67053;SDS011;53960;51.826;5.850;2023-04-03T13:07:32;5.60;;;1.60;;
67053;SDS011;53960;51.826;5.850;2023-04-03T13:12:55;4.53;;;0.98;;
67053;SDS011;53960;51.826;5.850;2023-04-03T13:15:25;5.07;;;1.27;;
67053;SDS011;53960;51.826;5.850;2023-04-03T13:17:55;5.57;;;0.93;;
67053;SDS011;53960;51.826;5.850;2023-04-03T13:20:28;5.90;;;1.20;;
67053;SDS011;53960;51.826;5.850;2023-04-03T13:22:57;6.47;;;1.17;;
67053;SDS011;53960;51.826;5.850;2023-04-03T13:25:30;6.38;;;1.35;;
67053;SDS011;53960;51.826;5.850;2023-04-03T13:27:58;6.13;;;1.23;;
67053;SDS011;53960;51.826;5.850;2023-04-03T13:32:52;7.22;;;1.20;;
67053;SDS011;53960;51.826;5.850;2023-04-03T13:37:54;6.05;;;1.20;;
67053;SDS011;53960;51.826;5.850;2023-04-03T13:40:23;5.78;;;1.30;;
67053;SDS011;53960;51.826;5.850;2023-04-03T13:48:36;5.82;;;1.08;;
67053;SDS011;53960;51.826;5.850;2023-04-03T13:56:38;5.60;;;1.00;;
67053;SDS011;53960;51.826;5.850;2023-04-03T14:01:43;5.85;;;1.30;;
67053;SDS011;53960;51.826;5.850;2023-04-03T14:06:41;5.78;;;1.38;;
67053;SDS011;53960;51.826;5.850;2023-04-03T14:09:06;6.63;;;1.50;;
67053;SDS011;53960;51.826;5.850;2023-04-03T14:11:31;6.47;;;1.47;;
67053;SDS011;53960;51.826;5.850;2023-04-03T14:14:00;5.13;;;1.00;;
67053;SDS011;53960;51.826;5.850;2023-04-03T14:16:30;4.72;;;0.90;;
67053;SDS011;53960;51.826;5.850;2023-04-03T14:18:57;5.22;;;1.30;;
67053;SDS011;53960;51.826;5.850;2023-04-03T14:21:22;5.33;;;1.10;;
67053;SDS011;53960;51.826;5.850;2023-04-03T14:23:48;6.40;;;1.30;;
67053;SDS011;53960;51.826;5.850;2023-04-03T14:26:16;5.60;;;1.40;;
67053;SDS011;53960;51.826;5.850;2023-04-03T14:28:44;5.82;;;1.17;;
67053;SDS011;53960;51.826;5.850;2023-04-03T14:31:11;7.25;;;1.45;;
67053;SDS011;53960;51.826;5.850;2023-04-03T14:33:38;5.93;;;1.33;;
67053;SDS011;53960;51.826;5.850;2023-04-03T14:38:50;7.15;;;1.30;;
67053;SDS011;53960;51.826;5.850;2023-04-03T14:41:18;5.97;;;1.30;;
67053;SDS011;53960;51.826;5.850;2023-04-03T14:43:45;6.18;;;1.88;;
67053;SDS011;53960;51.826;5.850;2023-04-03T14:46:12;5.87;;;1.17;;
67053;SDS011;53960;51.826;5.850;2023-04-03T14:48:41;5.70;;;1.58;;
67053;SDS011;53960;51.826;5.850;2023-04-03T14:51:06;6.35;;;1.80;;
67053;SDS011;53960;51.826;5.850;2023-04-03T14:53:32;5.90;;;1.53;;
67053;SDS011;53960;51.826;5.850;2023-04-03T14:55:57;5.90;;;1.30;;
67053;SDS011;53960;51.826;5.850;2023-04-03T14:58:23;6.85;;;1.30;;
67053;SDS011;53960;51.826;5.850;2023-04-03T15:00:48;7.73;;;1.30;;
67053;SDS011;53960;51.826;5.850;2023-04-03T15:03:21;5.80;;;1.00;;
67053;SDS011;53960;51.826;5.850;2023-04-03T15:05:48;4.20;;;1.27;;
67053;SDS011;53960;51.826;5.850;2023-04-03T15:10:48;6.55;;;1.13;;
67053;SDS011;53960;51.826;5.850;2023-04-03T15:13:13;6.57;;;1.60;;
67053;SDS011;53960;51.826;5.850;2023-04-03T15:15:39;5.40;;;1.17;;
67053;SDS011;53960;51.826;5.850;2023-04-03T15:18:05;4.72;;;1.20;;
67053;SDS011;53960;51.826;5.850;2023-04-03T15:20:30;6.07;;;1.37;;
67053;SDS011;53960;51.826;5.850;2023-04-03T15:22:58;6.70;;;1.63;;
67053;SDS011;53960;51.826;5.850;2023-04-03T15:25:26;5.53;;;1.10;;
67053;SDS011;53960;51.826;5.850;2023-04-03T15:27:52;6.60;;;1.53;;
67053;SDS011;53960;51.826;5.850;2023-04-03T15:30:19;5.65;;;1.45;;
67053;SDS011;53960;51.826;5.850;2023-04-03T15:32:45;5.70;;;1.38;;
67053;SDS011;53960;51.826;5.850;2023-04-03T15:35:11;7.47;;;1.57;;
67053;SDS011;53960;51.826;5.850;2023-04-03T15:37:36;7.03;;;2.13;;
67053;SDS011;53960;51.826;5.850;2023-04-03T15:40:02;4.87;;;1.27;;
67053;SDS011;53960;51.826;5.850;2023-04-03T15:42:29;5.28;;;1.30;;
67053;SDS011;53960;51.826;5.850;2023-04-03T15:44:54;7.27;;;1.40;;
67053;SDS011;53960;51.826;5.850;2023-04-03T15:47:20;7.63;;;1.40;;
67053;SDS011;53960;51.826;5.850;2023-04-03T15:49:45;5.90;;;1.40;;
67053;SDS011;53960;51.826;5.850;2023-04-03T15:52:10;6.68;;;1.40;;
67053;SDS011;53960;51.826;5.850;2023-04-03T15:54:36;5.30;;;1.13;;
67053;SDS011;53960;51.826;5.850;2023-04-03T15:57:01;7.23;;;1.47;;
67053;SDS011;53960;51.826;5.850;2023-04-03T15:59:26;7.00;;;2.10;;
67053;SDS011;53960;51.826;5.850;2023-04-03T16:01:53;7.20;;;1.65;;
67053;SDS011;53960;51.826;5.850;2023-04-03T16:04:19;9.10;;;1.73;;
67053;SDS011;53960;51.826;5.850;2023-04-03T16:06:46;5.57;;;1.50;;
67053;SDS011;53960;51.826;5.850;2023-04-03T16:09:11;6.50;;;1.80;;
67053;SDS011;53960;51.826;5.850;2023-04-03T16:11:37;6.23;;;1.40;;
67053;SDS011;53960;51.826;5.850;2023-04-03T16:14:05;7.10;;;1.50;;
67053;SDS011;53960;51.826;5.850;2023-04-03T16:16:31;5.60;;;1.40;;
67053;SDS011;53960;51.826;5.850;2023-04-03T16:18:56;6.30;;;1.27;;
67053;SDS011;53960;51.826;5.850;2023-04-03T16:21:22;6.07;;;1.53;;
67053;SDS011;53960;51.826;5.850;2023-04-03T16:23:47;6.63;;;1.70;;
67053;SDS011;53960;51.826;5.850;2023-04-03T16:26:13;6.23;;;1.50;;
67053;SDS011;53960;51.826;5.850;2023-04-03T16:28:39;6.03;;;1.58;;
67053;SDS011;53960;51.826;5.850;2023-04-03T16:31:06;6.53;;;1.27;;
67053;SDS011;53960;51.826;5.850;2023-04-03T16:33:32;6.90;;;1.42;;
67053;SDS011;53960;51.826;5.850;2023-04-03T16:35:58;6.90;;;1.60;;
67053;SDS011;53960;51.826;5.850;2023-04-03T16:38:23;7.30;;;1.55;;
67053;SDS011;53960;51.826;5.850;2023-04-03T16:40:49;6.87;;;1.40;;
67053;SDS011;53960;51.826;5.850;2023-04-03T16:43:15;8.00;;;1.40;;
67053;SDS011;53960;51.826;5.850;2023-04-03T16:45:41;6.83;;;1.33;;
67053;SDS011;53960;51.826;5.850;2023-04-03T16:48:07;6.10;;;1.42;;
67053;SDS011;53960;51.826;5.850;2023-04-03T16:50:32;6.05;;;1.50;;
67053;SDS011;53960;51.826;5.850;2023-04-03T16:52:58;6.50;;;1.60;;